Time;durP1;ratioP1;P1;durP2;ratioP2;P2;SDS_P1;SDS_P2;PMS_P1;PMS_P2;Temp;Humidity;BMP_temperature;BMP_pressure;BME280_temperature;BME280_humidity;BME280_pressure;Samples;Min_cycle;Max_cycle;Signal;HPM_P1;HPM_P2
2021/07/05 00:00:30;;;;;;;10.40;5.50;;;17.00;99.90;;;;;;5052916;28;20041;-69
2021/07/05 00:02:56;;;;;;;8.55;6.53;;;17.00;99.90;;;;;;5052704;28;20067;-65
2021/07/05 00:05:22;;;;;;;7.00;5.25;;;17.00;99.90;;;;;;5052717;28;20033;-66
2021/07/05 00:07:47;;;;;;;8.45;6.38;;;17.10;99.90;;;;;;5051380;28;20029;-66
2021/07/05 00:10:19;;;;;;;6.93;6.28;;;17.00;99.90;;;;;;5052858;28;20029;-64
2021/07/05 00:12:45;;;;;;;8.10;6.30;;;17.00;99.90;;;;;;5051742;28;20035;-64
2021/07/05 00:15:13;;;;;;;7.13;6.13;;;16.90;99.90;;;;;;5051146;28;20427;-64
2021/07/05 00:17:40;;;;;;;10.68;6.78;;;16.90;99.90;;;;;;5052667;28;20587;-66
2021/07/05 00:20:07;;;;;;;8.65;6.50;;;17.00;99.90;;;;;;5052285;28;20236;-64
2021/07/05 00:22:33;;;;;;;9.45;7.05;;;17.10;99.90;;;;;;5052505;28;20543;-66
2021/07/05 00:24:58;;;;;;;8.75;7.13;;;17.10;99.90;;;;;;5052295;28;20116;-65
2021/07/05 00:27:24;;;;;;;10.18;7.57;;;17.10;99.90;;;;;;5051311;28;20103;-66
2021/07/05 00:29:49;;;;;;;10.05;7.47;;;17.10;99.90;;;;;;5052221;28;20051;-65
2021/07/05 00:32:15;;;;;;;6.07;5.47;;;17.10;99.90;;;;;;5052284;28;20025;-66
2021/07/05 00:34:40;;;;;;;6.68;5.88;;;17.00;99.90;;;;;;5052241;28;20503;-65
2021/07/05 00:37:06;;;;;;;6.47;5.75;;;16.90;99.90;;;;;;5033676;28;20025;-66
2021/07/05 00:39:31;;;;;;;6.82;5.55;;;16.80;99.90;;;;;;5032251;28;20033;-65
2021/07/05 00:41:57;;;;;;;6.93;5.80;;;16.70;99.90;;;;;;5031890;28;20401;-66
2021/07/05 00:44:22;;;;;;;7.43;6.13;;;16.70;99.90;;;;;;5042285;28;20033;-65
2021/07/05 00:46:48;;;;;;;8.65;7.28;;;16.60;99.90;;;;;;5050052;28;20057;-66
2021/07/05 00:49:13;;;;;;;8.68;6.43;;;16.60;99.90;;;;;;5051940;28;20056;-65
2021/07/05 00:51:39;;;;;;;10.10;7.15;;;16.50;99.90;;;;;;5051827;28;20025;-66
2021/07/05 00:54:04;;;;;;;7.43;6.72;;;16.40;99.90;;;;;;5051921;28;20044;-65
2021/07/05 00:56:30;;;;;;;8.55;7.65;;;16.40;99.90;;;;;;5050588;28;20062;-66
2021/07/05 00:58:58;;;;;;;5.80;5.22;;;16.40;99.90;;;;;;5051141;28;20391;-65
2021/07/05 01:01:23;;;;;;;7.40;5.85;;;16.40;99.90;;;;;;5050217;28;20055;-65
2021/07/05 01:03:49;;;;;;;7.43;5.82;;;16.30;99.90;;;;;;5051673;28;20028;-66
2021/07/05 01:06:14;;;;;;;6.95;6.25;;;16.30;99.90;;;;;;5051614;28;20065;-65
2021/07/05 01:08:40;;;;;;;7.53;6.50;;;16.20;99.90;;;;;;5051819;28;20041;-66
2021/07/05 01:11:05;;;;;;;6.40;5.80;;;16.20;99.90;;;;;;5051537;28;20040;-66
2021/07/05 01:13:31;;;;;;;8.07;6.28;;;16.20;99.90;;;;;;5049526;28;20021;-65
2021/07/05 01:15:57;;;;;;;5.82;5.22;;;16.20;99.90;;;;;;5051123;28;20037;-66
2021/07/05 01:18:22;;;;;;;7.05;5.80;;;16.20;99.90;;;;;;5050966;28;20025;-64
2021/07/05 01:20:47;;;;;;;7.50;6.68;;;16.20;99.90;;;;;;5052528;28;20373;-66
2021/07/05 01:23:13;;;;;;;7.03;6.40;;;16.20;99.90;;;;;;5052422;28;20025;-65
2021/07/05 01:25:40;;;;;;;6.43;5.82;;;16.20;99.90;;;;;;5052541;28;20085;-66
2021/07/05 01:28:09;;;;;;;6.05;5.45;;;16.20;99.90;;;;;;5051564;28;20029;-66
2021/07/05 01:30:35;;;;;;;7.13;6.43;;;16.20;99.90;;;;;;5052401;28;20024;-65
2021/07/05 01:33:04;;;;;;;6.45;5.85;;;16.20;99.90;;;;;;5052322;28;20017;-65
2021/07/05 01:35:30;;;;;;;6.30;5.70;;;16.20;99.90;;;;;;5048259;28;20060;-66
2021/07/05 01:37:57;;;;;;;5.82;5.22;;;16.20;99.90;;;;;;5032492;28;20029;-66
2021/07/05 01:40:23;;;;;;;8.05;7.10;;;16.20;99.90;;;;;;5032553;28;20409;-66
2021/07/05 01:42:52;;;;;;;8.55;6.32;;;16.30;99.90;;;;;;5031619;28;20100;-66
2021/07/05 01:45:29;;;;;;;6.38;5.18;;;16.30;99.90;;;;;;5032295;28;20037;-66
2021/07/05 01:47:55;;;;;;;6.00;5.43;;;16.30;99.90;;;;;;5032392;28;20021;-67
2021/07/05 01:50:22;;;;;;;6.05;5.45;;;16.30;99.90;;;;;;5032370;28;20022;-66
2021/07/05 01:52:48;;;;;;;6.78;6.03;;;16.30;99.90;;;;;;5032357;28;20052;-66
2021/07/05 01:55:15;;;;;;;7.55;6.80;;;16.30;99.90;;;;;;5035041;28;20044;-66
2021/07/05 01:57:41;;;;;;;7.15;5.93;;;16.30;99.90;;;;;;5035555;28;20461;-66
2021/07/05 02:00:17;;;;;;;7.63;6.57;;;16.20;99.90;;;;;;5036074;28;20032;-66
2021/07/05 02:02:45;;;;;;;9.32;6.43;;;16.10;99.90;;;;;;5036126;28;20050;-65
2021/07/05 02:05:12;;;;;;;7.05;6.20;;;16.10;99.90;;;;;;5036028;28;20561;-66
2021/07/05 02:07:39;;;;;;;10.30;7.63;;;16.00;99.90;;;;;;5036189;28;20049;-68
2021/07/05 02:10:10;;;;;;;10.23;7.80;;;15.90;99.90;;;;;;5036052;28;20420;-66
2021/07/05 02:12:38;;;;;;;10.85;7.40;;;15.90;99.90;;;;;;5035077;28;20076;-66
2021/07/05 02:15:06;;;;;;;10.27;8.07;;;15.80;99.90;;;;;;5035888;28;20024;-66
2021/07/05 02:17:32;;;;;;;10.23;8.80;;;15.70;99.90;;;;;;5035824;28;20027;-65
2021/07/05 02:19:57;;;;;;;12.25;9.40;;;15.70;99.90;;;;;;5035860;28;20040;-65
2021/07/05 02:22:23;;;;;;;11.43;9.63;;;15.60;99.90;;;;;;5035981;28;20029;-66
2021/07/05 02:24:48;;;;;;;10.60;8.75;;;15.60;99.90;;;;;;5035892;28;20018;-66
2021/07/05 02:27:14;;;;;;;9.82;8.13;;;15.50;99.90;;;;;;5034705;28;20036;-65
2021/07/05 02:29:40;;;;;;;9.88;8.88;;;15.50;99.90;;;;;;5035663;28;20037;-66
2021/07/05 02:32:05;;;;;;;12.70;10.35;;;15.40;99.90;;;;;;5035543;28;20377;-66
2021/07/05 02:34:31;;;;;;;8.85;7.00;;;15.40;99.90;;;;;;5035726;28;20101;-66
2021/07/05 02:36:56;;;;;;;9.73;7.63;;;15.30;99.90;;;;;;5036840;28;20547;-65
2021/07/05 02:39:22;;;;;;;9.93;7.90;;;15.30;99.90;;;;;;5035647;28;20036;-66
2021/07/05 02:41:48;;;;;;;11.55;8.93;;;15.20;99.90;;;;;;5035383;28;20112;-66
2021/07/05 02:44:14;;;;;;;10.80;8.88;;;15.20;99.90;;;;;;5034530;28;20030;-66
2021/07/05 02:46:40;;;;;;;12.07;9.77;;;15.20;99.90;;;;;;5035338;28;20030;-66
2021/07/05 02:49:06;;;;;;;10.27;9.18;;;15.20;99.90;;;;;;5035150;28;20610;-66
2021/07/05 02:51:32;;;;;;;10.90;8.85;;;15.10;99.90;;;;;;5035169;28;20100;-66
2021/07/05 02:53:57;;;;;;;13.55;10.50;;;15.10;99.90;;;;;;5035400;28;20362;-66
2021/07/05 02:56:23;;;;;;;12.85;9.05;;;15.10;99.90;;;;;;5035051;28;20087;-66
2021/07/05 02:58:49;;;;;;;8.30;7.50;;;15.00;99.90;;;;;;5034465;28;20483;-65
2021/07/05 03:01:15;;;;;;;10.50;9.38;;;15.00;99.90;;;;;;5034951;28;20025;-67
2021/07/05 03:03:41;;;;;;;10.70;7.70;;;15.00;99.90;;;;;;5035151;28;20117;-66
2021/07/05 03:06:06;;;;;;;8.07;7.13;;;15.00;99.90;;;;;;5034902;28;20021;-64
2021/07/05 03:08:32;;;;;;;8.15;6.55;;;15.00;99.90;;;;;;5035058;28;20025;-66
2021/07/05 03:10:57;;;;;;;8.25;7.22;;;15.00;99.90;;;;;;5034774;28;20409;-66
2021/07/05 03:13:23;;;;;;;8.13;7.30;;;15.00;99.90;;;;;;5034134;28;20025;-67
2021/07/05 03:15:51;;;;;;;9.13;8.23;;;15.00;99.90;;;;;;5034905;28;20362;-66
2021/07/05 03:18:16;;;;;;;8.55;7.63;;;15.10;99.90;;;;;;5034787;28;20381;-66
2021/07/05 03:20:48;;;;;;;10.50;8.93;;;15.10;99.90;;;;;;5034733;28;20029;-66
2021/07/05 03:23:16;;;;;;;7.88;7.03;;;15.10;99.90;;;;;;5034770;28;20033;-66
2021/07/05 03:25:42;;;;;;;11.02;9.20;;;15.20;99.90;;;;;;5034599;28;20469;-66
2021/07/05 03:28:10;;;;;;;13.07;9.13;;;15.30;99.90;;;;;;5033718;28;20041;-67
2021/07/05 03:30:37;;;;;;;8.38;7.47;;;15.30;99.90;;;;;;5034627;28;20048;-66
2021/07/05 03:33:04;;;;;;;9.05;7.65;;;15.40;99.90;;;;;;5033308;28;20025;-66
2021/07/05 03:35:30;;;;;;;8.30;7.40;;;15.50;99.90;;;;;;5035755;28;20024;-66
2021/07/05 03:37:56;;;;;;;8.45;6.85;;;15.60;99.90;;;;;;5034556;28;20034;-65
2021/07/05 03:40:24;;;;;;;8.88;6.53;;;15.70;99.90;;;;;;5034293;28;20029;-65
2021/07/05 03:42:50;;;;;;;8.48;7.55;;;15.80;99.90;;;;;;5033570;28;20039;-66
2021/07/05 03:45:18;;;;;;;8.02;7.22;;;15.90;99.90;;;;;;5034219;28;20385;-65
2021/07/05 03:47:44;;;;;;;8.65;7.75;;;16.00;99.90;;;;;;5034230;28;20539;-65
2021/07/05 03:50:11;;;;;;;8.88;7.28;;;16.10;99.90;;;;;;5034105;28;20424;-66
2021/07/05 03:52:37;;;;;;;11.27;7.95;;;16.20;99.90;;;;;;5034208;28;20077;-66
2021/07/05 03:55:05;;;;;;;9.93;8.30;;;16.30;99.90;;;;;;5034177;28;20481;-66
2021/07/05 03:57:30;;;;;;;7.82;7.10;;;16.40;99.90;;;;;;5033262;28;20061;-66
2021/07/05 03:59:58;;;;;;;8.13;7.30;;;16.40;99.90;;;;;;5034143;28;20063;-67
2021/07/05 04:02:24;;;;;;;8.48;7.53;;;16.50;99.90;;;;;;5033694;28;20440;-66
2021/07/05 04:04:50;;;;;;;8.38;7.53;;;16.50;99.90;;;;;;5032556;28;20052;-65
2021/07/05 04:07:17;;;;;;;11.25;9.60;;;16.50;99.90;;;;;;5033749;28;20366;-67
2021/07/05 04:09:43;;;;;;;10.88;9.77;;;16.50;99.90;;;;;;5033919;28;20045;-66
2021/07/05 04:12:10;;;;;;;12.10;8.90;;;16.50;99.90;;;;;;5032834;28;20029;-66
2021/07/05 04:14:37;;;;;;;11.57;10.30;;;16.60;99.90;;;;;;5033915;28;20017;-66
2021/07/05 04:17:02;;;;;;;9.00;7.60;;;16.60;99.90;;;;;;5033227;28;20369;-67
2021/07/05 04:19:28;;;;;;;11.48;9.93;;;16.70;99.90;;;;;;5033471;28;20044;-66
2021/07/05 04:21:53;;;;;;;12.32;11.05;;;16.80;99.90;;;;;;5033445;28;20029;-64
2021/07/05 04:24:19;;;;;;;13.20;11.48;;;16.90;99.90;;;;;;5033548;28;20029;-67
2021/07/05 04:26:45;;;;;;;16.35;11.05;;;17.10;99.90;;;;;;5033309;28;20358;-66
2021/07/05 04:29:11;;;;;;;13.77;10.98;;;17.30;99.90;;;;;;5032389;28;20025;-66
2021/07/05 04:31:36;;;;;;;11.32;10.05;;;17.50;99.90;;;;;;5033270;28;20028;-65
2021/07/05 04:34:02;;;;;;;12.20;11.00;;;17.70;99.90;;;;;;5033559;28;20498;-66
2021/07/05 04:36:28;;;;;;;9.60;8.70;;;17.90;99.90;;;;;;5034352;28;20033;-67
2021/07/05 04:38:53;;;;;;;11.05;9.95;;;18.30;99.90;;;;;;5033386;28;20047;-66
2021/07/05 04:41:19;;;;;;;12.07;10.88;;;18.70;99.90;;;;;;5033148;28;20408;-65
2021/07/05 04:43:44;;;;;;;12.13;10.93;;;19.00;99.90;;;;;;5032478;28;20029;-66
2021/07/05 04:46:10;;;;;;;11.82;10.45;;;19.60;99.90;;;;;;5033150;28;20465;-66
2021/07/05 04:48:35;;;;;;;9.68;8.77;;;20.50;99.90;;;;;;5033134;28;20037;-66
2021/07/05 04:51:04;;;;;;;10.13;9.13;;;21.50;99.90;;;;;;5032833;28;20104;-66
2021/07/05 04:53:29;;;;;;;10.82;8.82;;;22.50;99.90;;;;;;5033054;28;20025;-64
2021/07/05 04:55:57;;;;;;;11.65;10.50;;;23.10;99.90;;;;;;5033035;28;20029;-66
2021/07/05 04:58:23;;;;;;;11.98;9.45;;;23.60;99.90;;;;;;5032133;28;20029;-66
2021/07/05 05:00:48;;;;;;;12.45;10.30;;;24.40;99.90;;;;;;5032933;28;20044;-65
2021/07/05 05:03:14;;;;;;;12.15;11.05;;;25.30;99.90;;;;;;5032718;28;20077;-66
2021/07/05 05:05:41;;;;;;;10.48;9.13;;;26.00;99.90;;;;;;5032531;28;20152;-65
2021/07/05 05:08:08;;;;;;;13.23;11.82;;;26.70;99.90;;;;;;5032862;28;20017;-64
2021/07/05 05:10:34;;;;;;;11.30;10.30;;;27.30;99.90;;;;;;5032779;28;20025;-65
2021/07/05 05:12:59;;;;;;;11.63;10.43;;;27.60;99.90;;;;;;5032023;28;20429;-65
2021/07/05 05:15:25;;;;;;;11.68;10.57;;;27.80;99.90;;;;;;5032648;28;20025;-65
2021/07/05 05:17:51;;;;;;;10.48;9.40;;;27.80;99.90;;;;;;5032606;28;20033;-65
2021/07/05 05:20:17;;;;;;;12.13;10.93;;;28.10;99.90;;;;;;5032486;28;20021;-65
2021/07/05 05:22:43;;;;;;;11.13;9.30;;;28.50;99.90;;;;;;5032561;28;20044;-65
2021/07/05 05:25:10;;;;;;;10.02;9.02;;;28.70;99.90;;;;;;5032685;28;20025;-65
2021/07/05 05:27:36;;;;;;;9.63;8.73;;;29.20;99.90;;;;;;5031498;28;20083;-67
2021/07/05 05:30:04;;;;;;;8.77;7.97;;;29.80;99.90;;;;;;5031711;28;20029;-65
2021/07/05 05:32:30;;;;;;;10.63;8.82;;;30.50;99.90;;;;;;5032327;28;20029;-65
2021/07/05 05:34:55;;;;;;;11.45;10.35;;;31.00;99.90;;;;;;5033074;28;20048;-65
2021/07/05 05:37:21;;;;;;;10.43;9.32;;;31.10;97.20;;;;;;5032804;28;20504;-64
2021/07/05 05:39:46;;;;;;;9.52;8.55;;;31.40;95.10;;;;;;5032517;28;20110;-64
2021/07/05 05:42:12;;;;;;;9.23;8.32;;;31.80;95.60;;;;;;5031421;28;20029;-64
2021/07/05 05:44:37;;;;;;;8.32;7.57;;;32.50;95.10;;;;;;5032359;28;20032;-65
2021/07/05 05:47:03;;;;;;;9.23;8.45;;;33.30;94.20;;;;;;5032339;28;20409;-65
2021/07/05 05:49:28;;;;;;;8.00;7.30;;;34.10;92.10;;;;;;5032035;28;20034;-63
2021/07/05 05:51:54;;;;;;;7.90;7.20;;;34.20;90.80;;;;;;5032108;28;20500;-65
2021/07/05 05:54:19;;;;;;;8.82;6.88;;;34.30;90.10;;;;;;5032348;28;20481;-64
2021/07/05 05:56:47;;;;;;;8.90;8.10;;;34.50;88.80;;;;;;5032376;28;20071;-65
2021/07/05 05:59:13;;;;;;;9.13;8.23;;;34.50;82.40;;;;;;5031765;28;20053;-64
2021/07/05 06:01:42;;;;;;;8.32;7.63;;;34.60;80.60;;;;;;5029536;28;20076;-64
2021/07/05 06:04:07;;;;;;;7.90;7.13;;;35.20;79.40;;;;;;5032067;28;20052;-65
2021/07/05 06:06:35;;;;;;;9.43;7.85;;;35.90;77.60;;;;;;5031879;28;20044;-65
2021/07/05 06:09:00;;;;;;;7.85;7.15;;;36.10;74.20;;;;;;5028815;28;20408;-65
2021/07/05 06:11:26;;;;;;;10.32;7.75;;;35.20;73.50;;;;;;5031835;28;20025;-65
2021/07/05 06:13:51;;;;;;;8.32;7.55;;;34.80;75.50;;;;;;5031127;28;20037;-66
2021/07/05 06:16:17;;;;;;;9.45;8.10;;;34.50;75.70;;;;;;5031880;28;20025;-66
2021/07/05 06:18:43;;;;;;;9.50;8.50;;;33.90;74.00;;;;;;5031369;28;20030;-64
2021/07/05 06:21:09;;;;;;;9.80;8.77;;;33.70;74.30;;;;;;5031932;28;20041;-66
2021/07/05 06:23:34;;;;;;;8.82;7.90;;;33.70;73.30;;;;;;5031648;28;20361;-66
2021/07/05 06:26:01;;;;;;;8.48;7.70;;;33.90;72.60;;;;;;5031809;28;20088;-65
2021/07/05 06:28:31;;;;;;;8.75;7.95;;;34.20;71.40;;;;;;5030576;28;20061;-66
2021/07/05 06:30:57;;;;;;;7.70;7.00;;;34.50;68.60;;;;;;5031854;28;20457;-65
2021/07/05 06:33:23;;;;;;;7.70;7.03;;;34.60;69.60;;;;;;5031439;28;20028;-64
2021/07/05 06:35:49;;;;;;;7.72;7.03;;;34.90;68.40;;;;;;5031640;28;20021;-65
2021/07/05 06:38:17;;;;;;;6.63;5.97;;;35.00;67.40;;;;;;5031539;28;20026;-65
2021/07/05 06:40:43;;;;;;;7.32;6.63;;;35.10;66.70;;;;;;5033425;28;20034;-65
2021/07/05 06:43:10;;;;;;;6.15;5.65;;;35.20;66.50;;;;;;5034486;28;20575;-66
2021/07/05 06:45:35;;;;;;;6.80;6.15;;;35.50;66.00;;;;;;5035160;28;20021;-65
2021/07/05 06:48:01;;;;;;;8.10;7.40;;;35.90;64.80;;;;;;5035003;28;20034;-67
2021/07/05 06:50:27;;;;;;;6.63;6.03;;;36.00;63.20;;;;;;5035067;28;20068;-66
2021/07/05 06:52:53;;;;;;;7.18;6.53;;;36.00;63.30;;;;;;5035136;28;20021;-65
2021/07/05 06:55:19;;;;;;;6.70;6.13;;;36.50;62.70;;;;;;5035147;28;20056;-66
2021/07/05 06:57:45;;;;;;;6.65;6.05;;;37.10;61.60;;;;;;5034088;28;20033;-65
2021/07/05 07:00:23;;;;;;;7.50;6.30;;;37.60;60.10;;;;;;5035094;28;20108;-63
2021/07/05 07:02:49;;;;;;;8.27;7.00;;;37.50;58.60;;;;;;5034500;28;20405;-64
2021/07/05 07:05:16;;;;;;;8.10;7.30;;;37.70;58.30;;;;;;5035100;28;20034;-64
2021/07/05 07:07:44;;;;;;;7.25;6.60;;;37.40;58.10;;;;;;5032683;28;20376;-64
2021/07/05 07:10:11;;;;;;;7.13;6.22;;;37.40;58.00;;;;;;5034065;28;20025;-64
2021/07/05 07:12:37;;;;;;;6.63;6.13;;;37.70;58.00;;;;;;5032840;28;20029;-64
2021/07/05 07:15:08;;;;;;;7.53;6.68;;;37.60;57.50;;;;;;5034396;28;20455;-64
2021/07/05 07:17:40;;;;;;;7.03;6.35;;;37.00;57.00;;;;;;5034578;28;20029;-64
2021/07/05 07:20:09;;;;;;;7.22;6.43;;;35.80;58.60;;;;;;5034815;28;20029;-63
2021/07/05 07:22:35;;;;;;;6.45;5.85;;;34.60;61.10;;;;;;5034312;28;20025;-63
2021/07/05 07:25:01;;;;;;;6.70;6.10;;;33.80;63.80;;;;;;5034595;28;20032;-64
2021/07/05 07:27:27;;;;;;;7.38;6.78;;;33.20;64.90;;;;;;5033400;28;20033;-63
2021/07/05 07:29:52;;;;;;;8.25;7.55;;;32.90;66.40;;;;;;5034444;28;20076;-65
2021/07/05 07:32:18;;;;;;;8.90;7.97;;;32.80;66.50;;;;;;5034609;28;20041;-65
2021/07/05 07:34:44;;;;;;;9.45;8.05;;;32.70;66.20;;;;;;5034279;28;20181;-63
2021/07/05 07:37:10;;;;;;;9.73;7.63;;;32.10;68.10;;;;;;5034292;28;20448;-63
2021/07/05 07:39:38;;;;;;;9.82;7.22;;;31.50;70.40;;;;;;5034182;28;20025;-63
2021/07/05 07:42:05;;;;;;;8.82;7.93;;;31.20;72.70;;;;;;5033424;28;20033;-65
2021/07/05 07:44:31;;;;;;;9.27;7.80;;;31.50;71.90;;;;;;5033564;28;20192;-62
2021/07/05 07:46:56;;;;;;;8.18;7.38;;;31.70;71.30;;;;;;5034205;28;20021;-63
2021/07/05 07:49:22;;;;;;;8.40;7.68;;;31.90;71.30;;;;;;5034126;28;20094;-63
2021/07/05 07:51:47;;;;;;;8.07;7.38;;;32.30;70.40;;;;;;5033090;28;20029;-63
2021/07/05 07:54:13;;;;;;;7.05;6.45;;;32.80;68.90;;;;;;5033999;28;20029;-63
2021/07/05 07:56:39;;;;;;;8.02;7.22;;;33.50;67.30;;;;;;5033737;28;20026;-62
2021/07/05 07:59:04;;;;;;;6.85;6.15;;;34.30;64.90;;;;;;5033004;28;20155;-63
2021/07/05 08:01:30;;;;;;;6.97;5.72;;;34.20;64.60;;;;;;5033792;28;20107;-63
2021/07/05 08:03:56;;;;;;;5.85;5.32;;;33.60;65.40;;;;;;5033862;28;20029;-63
2021/07/05 08:06:22;;;;;;;6.90;6.28;;;32.70;67.30;;;;;;5033817;28;20022;-63
2021/07/05 08:08:49;;;;;;;5.68;5.25;;;32.10;69.60;;;;;;5033566;28;20025;-62
2021/07/05 08:11:15;;;;;;;5.50;5.00;;;31.30;72.10;;;;;;5033725;28;20025;-61
2021/07/05 08:13:40;;;;;;;6.63;5.28;;;30.50;74.90;;;;;;5032571;28;20162;-63
2021/07/05 08:16:06;;;;;;;5.53;5.03;;;30.00;77.40;;;;;;5033726;28;20021;-63
2021/07/05 08:18:31;;;;;;;5.53;5.03;;;29.50;79.60;;;;;;5033578;28;20061;-65
2021/07/05 08:20:57;;;;;;;5.18;4.68;;;28.90;82.60;;;;;;5033554;28;20485;-63
2021/07/05 08:23:23;;;;;;;4.85;4.35;;;28.40;85.40;;;;;;5033531;28;20032;-65
2021/07/05 08:25:48;;;;;;;5.50;4.88;;;28.00;87.60;;;;;;5032743;28;20030;-65
2021/07/05 08:28:15;;;;;;;4.35;3.95;;;27.70;89.10;;;;;;5032337;28;20025;-65
2021/07/05 08:30:41;;;;;;;5.13;4.50;;;27.50;90.20;;;;;;5033304;28;20021;-66
2021/07/05 08:33:07;;;;;;;6.20;4.65;;;27.20;91.10;;;;;;5033295;28;20021;-65
2021/07/05 08:35:33;;;;;;;6.07;4.97;;;27.00;92.10;;;;;;5033095;28;20052;-64
2021/07/05 08:37:59;;;;;;;5.00;4.40;;;26.80;93.10;;;;;;5033215;28;20457;-65
2021/07/05 08:40:25;;;;;;;4.70;4.10;;;26.50;93.40;;;;;;5033083;28;20030;-66
2021/07/05 08:42:53;;;;;;;4.55;4.15;;;26.30;94.00;;;;;;5030651;28;20049;-64
2021/07/05 08:45:19;;;;;;;6.50;4.00;;;26.10;94.60;;;;;;5033151;28;20025;-66
2021/07/05 08:47:49;;;;;;;6.60;4.57;;;25.80;95.50;;;;;;5032799;28;20027;-66
2021/07/05 08:50:16;;;;;;;4.13;3.78;;;25.60;96.40;;;;;;5032933;28;20021;-66
2021/07/05 08:52:43;;;;;;;4.68;4.20;;;25.40;97.10;;;;;;5028601;28;20013;-66
2021/07/05 08:55:10;;;;;;;4.57;4.18;;;25.30;98.70;;;;;;5032496;28;20463;-67
2021/07/05 08:57:40;;;;;;;6.32;4.38;;;25.10;99.90;;;;;;5031861;28;20029;-64
2021/07/05 09:00:12;;;;;;;9.13;4.80;;;24.90;99.90;;;;;;5032988;28;20372;-65
2021/07/05 09:02:38;;;;;;;6.18;5.10;;;24.60;99.90;;;;;;5032675;28;20092;-66
2021/07/05 09:05:04;;;;;;;6.05;4.38;;;24.40;99.90;;;;;;5032880;28;20053;-66
2021/07/05 09:07:30;;;;;;;4.55;4.15;;;24.30;99.90;;;;;;5031719;28;20096;-66
2021/07/05 09:10:02;;;;;;;11.55;4.88;;;24.20;99.90;;;;;;5032576;28;20549;-66
2021/07/05 09:12:28;;;;;;;6.43;5.78;;;24.00;99.90;;;;;;5031597;28;20029;-66
2021/07/05 09:15:08;;;;;;;7.28;4.60;;;23.90;99.90;;;;;;5032482;28;20552;-64
2021/07/05 09:17:35;;;;;;;5.65;3.92;;;23.80;99.90;;;;;;5032738;28;20087;-66
2021/07/05 09:20:19;;;;;;;5.07;3.85;;;23.60;99.90;;;;;;5032750;28;20021;-64
2021/07/05 09:23:08;;;;;;;5.28;3.88;;;23.50;99.90;;;;;;5032570;28;20080;-66
2021/07/05 09:25:35;;;;;;;6.07;4.53;;;23.40;99.90;;;;;;5032515;28;20033;-66
2021/07/05 09:28:02;;;;;;;5.57;4.30;;;23.30;99.90;;;;;;5031699;28;20044;-66
2021/07/05 09:30:41;;;;;;;4.88;4.40;;;23.20;99.90;;;;;;5032559;28;20076;-66
2021/07/05 09:33:21;;;;;;;5.30;4.45;;;23.10;99.90;;;;;;5032611;28;20025;-66
2021/07/05 09:35:53;;;;;;;6.78;4.40;;;23.00;99.90;;;;;;5033772;28;20024;-65
2021/07/05 09:38:41;;;;;;;5.72;4.95;;;22.90;99.90;;;;;;5032420;28;20037;-63
2021/07/05 09:41:18;;;;;;;5.05;4.55;;;22.70;99.90;;;;;;5032321;28;20075;-66
2021/07/05 09:43:45;;;;;;;5.95;4.55;;;22.60;99.90;;;;;;5031393;28;20029;-65
2021/07/05 09:46:11;;;;;;;5.28;4.10;;;22.50;99.90;;;;;;5032602;28;20044;-64
2021/07/05 09:48:45;;;;;;;5.57;4.35;;;22.40;99.90;;;;;;5032299;28;20038;-66
2021/07/05 09:51:10;;;;;;;4.93;4.40;;;22.30;99.90;;;;;;5032448;28;20017;-66
2021/07/05 09:53:41;;;;;;;6.78;4.40;;;22.10;99.90;;;;;;5032117;28;20097;-66
2021/07/05 09:56:27;;;;;;;4.97;4.20;;;22.10;99.90;;;;;;5032380;28;20030;-66
2021/07/05 09:59:00;;;;;;;4.07;3.25;;;21.90;99.90;;;;;;5031376;28;20037;-66
2021/07/05 10:01:39;;;;;;;5.20;4.30;;;21.80;99.90;;;;;;5032291;28;20045;-66
2021/07/05 10:04:08;;;;;;;4.10;3.58;;;21.70;99.90;;;;;;5030763;28;20036;-66
2021/07/05 10:06:47;;;;;;;4.80;3.67;;;21.70;99.90;;;;;;5032332;28;20033;-66
2021/07/05 10:09:18;;;;;;;4.35;3.72;;;21.70;99.90;;;;;;5032264;28;20040;-66
2021/07/05 10:11:44;;;;;;;4.43;4.03;;;21.70;99.90;;;;;;5031574;28;20539;-64
2021/07/05 10:14:21;;;;;;;5.47;4.00;;;21.80;99.90;;;;;;5031950;28;20029;-67
2021/07/05 10:16:49;;;;;;;5.05;3.63;;;21.80;99.90;;;;;;5035659;28;20052;-67
2021/07/05 10:19:17;;;;;;;4.03;3.38;;;21.80;99.90;;;;;;5035957;28;20108;-64
2021/07/05 10:21:43;;;;;;;6.13;3.72;;;21.90;99.90;;;;;;5036161;28;20104;-66
2021/07/05 10:24:09;;;;;;;4.53;2.83;;;22.00;99.90;;;;;;5035963;28;20103;-65
2021/07/05 10:26:37;;;;;;;4.65;3.50;;;22.00;99.90;;;;;;5036092;28;20466;-66
2021/07/05 10:29:04;;;;;;;4.55;3.90;;;22.10;99.90;;;;;;5033247;28;20643;-66
2021/07/05 10:31:30;;;;;;;4.07;3.38;;;22.30;99.90;;;;;;5035960;28;20018;-66
2021/07/05 10:34:00;;;;;;;4.40;3.08;;;22.40;99.90;;;;;;5035716;28;20021;-65
2021/07/05 10:36:31;;;;;;;3.38;2.92;;;22.70;99.90;;;;;;5037131;28;20480;-69
2021/07/05 10:39:01;;;;;;;4.45;3.17;;;23.00;99.90;;;;;;5035650;28;20034;-66
2021/07/05 10:41:35;;;;;;;4.22;3.63;;;23.30;99.90;;;;;;5035781;28;20033;-66
2021/07/05 10:44:04;;;;;;;4.00;3.70;;;23.50;99.90;;;;;;5034424;28;20075;-66
2021/07/05 10:46:52;;;;;;;5.68;4.32;;;23.60;99.90;;;;;;5035618;28;20376;-66
2021/07/05 10:49:34;;;;;;;4.65;4.07;;;23.80;99.90;;;;;;5035408;28;20038;-66
2021/07/05 10:52:01;;;;;;;4.05;3.67;;;23.90;99.90;;;;;;5035230;28;20023;-66
2021/07/05 10:54:46;;;;;;;5.03;4.20;;;24.00;99.90;;;;;;5035401;28;20029;-66
2021/07/05 10:57:14;;;;;;;5.43;4.32;;;24.10;99.90;;;;;;5034492;28;20022;-66
2021/07/05 10:59:46;;;;;;;4.88;3.70;;;24.20;99.90;;;;;;5035166;28;20072;-65
2021/07/05 11:02:30;;;;;;;4.03;3.53;;;24.30;99.90;;;;;;5035201;28;20128;-64
2021/07/05 11:04:56;;;;;;;4.38;3.08;;;24.40;99.90;;;;;;5035098;28;20029;-66
2021/07/05 11:07:24;;;;;;;4.13;3.55;;;24.40;99.90;;;;;;5035194;28;20044;-66
2021/07/05 11:09:56;;;;;;;5.70;4.88;;;24.60;99.90;;;;;;5034889;28;20178;-64
2021/07/05 11:12:33;;;;;;;4.85;4.45;;;24.70;99.90;;;;;;5034243;28;20056;-65
2021/07/05 11:15:00;;;;;;;4.22;3.80;;;24.60;99.90;;;;;;5034184;28;20026;-66
2021/07/05 11:17:26;;;;;;;7.75;4.72;;;24.60;99.90;;;;;;5035048;28;20449;-66
2021/07/05 11:20:15;;;;;;;4.43;3.75;;;24.70;99.90;;;;;;5034792;28;20029;-66
2021/07/05 11:22:56;;;;;;;5.25;4.22;;;24.80;99.90;;;;;;5034989;28;20026;-66
2021/07/05 11:25:25;;;;;;;4.28;3.85;;;25.10;99.90;;;;;;5033396;28;20029;-66
2021/07/05 11:27:53;;;;;;;4.40;3.63;;;25.20;99.90;;;;;;5032536;28;20053;-66
2021/07/05 11:30:31;;;;;;;4.07;3.67;;;25.40;99.90;;;;;;5034759;28;20025;-66
2021/07/05 11:33:11;;;;;;;3.42;3.13;;;25.50;99.90;;;;;;5034719;28;20489;-66
2021/07/05 11:36:00;;;;;;;3.60;3.30;;;25.60;99.90;;;;;;5035899;28;20096;-66
2021/07/05 11:38:38;;;;;;;6.00;4.65;;;25.60;99.90;;;;;;5031895;28;20044;-66
2021/07/05 11:41:12;;;;;;;3.20;2.85;;;25.70;99.90;;;;;;5034406;28;20058;-66
2021/07/05 11:44:00;;;;;;;4.50;3.35;;;25.70;99.90;;;;;;5033514;28;20079;-66
2021/07/05 11:46:29;;;;;;;3.70;3.40;;;25.70;99.90;;;;;;5034380;28;20051;-64
2021/07/05 11:49:00;;;;;;;3.67;3.38;;;25.70;99.90;;;;;;5034324;28;20029;-65
2021/07/05 11:51:36;;;;;;;3.92;3.35;;;25.50;99.90;;;;;;5034313;28;20457;-65
2021/07/05 11:54:16;;;;;;;3.60;3.22;;;25.30;99.90;;;;;;5034143;28;20413;-66
2021/07/05 11:56:50;;;;;;;4.82;3.25;;;25.10;99.90;;;;;;5033515;28;20071;-66
2021/07/05 11:59:24;;;;;;;5.25;3.67;;;25.10;99.90;;;;;;5034014;28;20061;-66
2021/07/05 12:02:01;;;;;;;3.50;3.20;;;25.20;99.90;;;;;;5034164;28;20056;-66
2021/07/05 12:04:32;;;;;;;3.67;3.38;;;25.40;99.90;;;;;;5034142;28;20101;-64
2021/07/05 12:06:59;;;;;;;4.22;3.83;;;25.70;99.90;;;;;;5033968;28;20033;-66
2021/07/05 12:09:27;;;;;;;4.80;4.30;;;25.70;99.90;;;;;;5033953;28;20032;-66
2021/07/05 12:11:53;;;;;;;3.67;3.38;;;25.30;99.90;;;;;;5033124;28;20029;-64
2021/07/05 12:14:25;;;;;;;3.05;2.80;;;25.10;99.90;;;;;;5033673;28;20022;-67
2021/07/05 12:16:58;;;;;;;2.63;2.42;;;25.10;99.90;;;;;;5033923;28;20091;-66
2021/07/05 12:19:26;;;;;;;2.85;2.65;;;25.30;99.90;;;;;;5033798;28;20021;-66
2021/07/05 12:21:55;;;;;;;5.95;3.60;;;25.50;99.90;;;;;;5033751;28;20049;-65
2021/07/05 12:24:30;;;;;;;5.07;4.13;;;25.50;99.90;;;;;;5033701;28;20424;-64
2021/07/05 12:27:03;;;;;;;5.22;3.60;;;25.60;99.90;;;;;;5032701;28;20021;-65
2021/07/05 12:29:36;;;;;;;3.90;3.50;;;25.50;99.90;;;;;;5033469;28;20508;-67
2021/07/05 12:32:08;;;;;;;3.45;3.15;;;25.50;99.90;;;;;;5033592;28;20022;-65
2021/07/05 12:34:41;;;;;;;3.67;3.35;;;25.80;99.90;;;;;;5033475;28;20030;-66
2021/07/05 12:37:17;;;;;;;3.55;3.25;;;26.00;99.90;;;;;;5034854;28;20092;-66
2021/07/05 12:39:51;;;;;;;3.40;3.10;;;26.10;99.90;;;;;;5033157;28;20465;-66
2021/07/05 12:42:37;;;;;;;3.70;3.30;;;26.20;99.90;;;;;;5032442;28;20412;-66
2021/07/05 12:45:12;;;;;;;3.55;3.25;;;26.20;99.90;;;;;;5033039;28;20030;-67
2021/07/05 12:47:57;;;;;;;3.78;3.38;;;26.20;99.90;;;;;;5033381;28;20033;-66